Current Weather Conditions: station 44139

sailwx.info

Wind from 250 at 7 knots gusting 9

Wave height 1.6 meters (5 feet), 13 second period

Air temperature 2.7° C
Water temperature 2.5° C

Last reported at 2017-Apr-24 12:00 UTC.
Time now 2017-Apr-24 13:10 UTC

Location: N 44°12' W 057°06'.
View on Google Maps.

See reports from other nearby stations

  
Tides and Currents Weather Stations Pressure Air Temp Water Temp Dewpoint Dewpoint Depression Visibility Wind Speed Wind Dir Waves Ship Positions
date/time (UTC)wind fromknots sea level pressurealtimeterstation pressurevisibilityair tempwater tempwave heightnotes
2017-Apr-24 12:00 250 7 gusting 9 2.7 2.5 1.6
2017-Apr-24 11:00 260 5 gusting 7 2.6 2.5 1.6
2017-Apr-24 10:00 270 7 gusting 9 2.1 2.5 1.6
2017-Apr-24 09:00 310 7 gusting 9 1.9 2.6 1.6
2017-Apr-24 08:00 310 11 gusting 13 1.4 2.7 1.9
2017-Apr-24 07:00 320 15 gusting 19 1.0 2.8 1.8
2017-Apr-24 06:00 300 15 gusting 19 0.5 2.7 1.9
2017-Apr-24 05:00 310 13 gusting 15 0.7 2.7 1.8
2017-Apr-24 04:00 340 13 gusting 15 0.8 2.6 1.9
2017-Apr-24 03:00 340 17 gusting 19 0.9 2.6 2.0
2017-Apr-24 02:00 340 17 gusting 21 0.9 2.6 2.1
2017-Apr-24 01:00 340 17 gusting 19 1.2 2.7 2.0
2017-Apr-24 00:00 350 17 gusting 19 1.5 2.7 2.1
2017-Apr-23 23:00 340 17 gusting 21 2.1 2.8 2.0
2017-Apr-23 22:00 010 19 gusting 23 2.0 3.1 1.9
2017-Apr-23 21:00 -0.0
2017-Apr-23 20:00 2.6 4.2 1.7
2017-Apr-23 19:00 010 13 gusting 15 3.5 4.1 1.8
2017-Apr-23 18:00 030 19 gusting 23 3.2 4.1 1.8
2017-Apr-23 17:00 030 19 gusting 21 3.1 3.9 1.8
2017-Apr-23 16:00 060 17 gusting 19 3.3 3.7 1.8
2017-Apr-23 15:00 060 15 gusting 17 3.2 3.8 1.7
2017-Apr-23 14:00 070 13 gusting 15 3.0 3.3 1.8
2017-Apr-23 13:00 080 11 gusting 13 2.7 3.1 1.5
2017-Apr-23 12:00 070 5 gusting 7 2.6 2.6 1.7
2017-Apr-23 11:00 110 9 gusting 11 2.6 2.4 1.9
2017-Apr-23 10:00 110 11 gusting 15 2.5 2.5 1.7
2017-Apr-23 09:00 110 7 gusting 7 2.1 2.5 1.8
2017-Apr-23 08:00 080 5 gusting 7 2.0 2.7 1.7
2017-Apr-23 07:00 050 3 gusting 3 1.9 2.8 1.8
2017-Apr-23 06:00 030 3 gusting 5 1.9 2.8 1.9
2017-Apr-23 05:00 040 3 gusting 5 1.8 2.7 1.8
2017-Apr-23 04:00 020 5 gusting 7 1.9 2.5 1.9
2017-Apr-23 03:00 1.9 2.5 2.1
2017-Apr-23 02:00 350 5 gusting 7 1.9 2.8 2.0
2017-Apr-23 01:00 010 7 gusting 9 1.9 3.0 2.0
2017-Apr-23 00:00 010 9 gusting 11 1.8 3.1 2.2
2017-Apr-22 23:00 010 9 gusting 11 2.0 3.2 2.2
2017-Apr-22 22:00 020 9 gusting 11 2.0 3.3 2.3
2017-Apr-22 21:00 030 11 gusting 13 1.6 3.3 2.4
2017-Apr-22 20:00 030 11 gusting 15 1.6 3.1 2.4
2017-Apr-22 19:00 020 11 gusting 15 1.6 2.9 2.5
2017-Apr-22 18:00 020 13 gusting 17 1.6 2.6 2.7
2017-Apr-22 17:00 020 13 gusting 17 1.8 2.6 2.6
2017-Apr-22 16:00 020 11 gusting 15 1.6 2.4 2.7
2017-Apr-22 15:00 020 13 gusting 17 1.5 2.4 2.7
2017-Apr-22 14:00 020 15 gusting 19 1.4 2.4 2.8
2017-Apr-22 13:00 020 17 1.3